createdAt,value
2022-08-21T00:00:26.805Z,18.06
2022-08-21T00:01:26.799Z,18.09
2022-08-21T00:02:26.857Z,18.09
2022-08-21T00:03:26.743Z,18.06
2022-08-21T00:04:29.220Z,18.09
2022-08-21T00:05:26.712Z,18.17
2022-08-21T00:06:26.721Z,18.11
2022-08-21T00:07:26.695Z,18.11
2022-08-21T00:08:26.660Z,18.02
2022-08-21T00:09:26.639Z,18.11
2022-08-21T00:10:26.626Z,18.02
2022-08-21T00:11:26.604Z,17.99
2022-08-21T00:12:26.590Z,17.99
2022-08-21T00:13:26.589Z,17.99
2022-08-21T00:14:26.556Z,17.97
2022-08-21T00:15:26.537Z,17.90
2022-08-21T00:16:26.519Z,17.91
2022-08-21T00:17:26.510Z,17.90
2022-08-21T00:18:26.511Z,17.86
2022-08-21T00:19:26.465Z,17.81
2022-08-21T00:20:26.452Z,17.79
2022-08-21T00:21:26.439Z,17.78
2022-08-21T00:22:26.409Z,17.78
2022-08-21T00:23:26.399Z,17.81
2022-08-21T00:24:26.394Z,17.84
2022-08-21T00:25:26.441Z,17.91
2022-08-21T00:26:26.338Z,17.93
2022-08-21T00:27:26.322Z,17.91
2022-08-21T00:28:26.312Z,17.90
2022-08-21T00:29:26.286Z,17.90
2022-08-21T00:30:26.290Z,17.78
2022-08-21T00:31:26.253Z,17.83
2022-08-21T00:32:26.230Z,17.78
2022-08-21T00:33:26.213Z,17.83
2022-08-21T00:34:26.193Z,17.75
2022-08-21T00:35:26.177Z,17.69
2022-08-21T00:36:26.189Z,17.66
2022-08-21T00:37:26.168Z,17.53
2022-08-21T00:38:26.121Z,17.56
2022-08-21T00:39:26.128Z,17.45
2022-08-21T00:40:26.665Z,17.53
2022-08-21T00:41:36.867Z,17.54
2022-08-21T00:42:26.075Z,17.49
2022-08-21T00:43:26.038Z,17.45
2022-08-21T00:44:26.017Z,17.43
2022-08-21T00:45:25.998Z,17.41
2022-08-21T00:46:28.404Z,17.39
2022-08-21T00:47:25.987Z,17.30
2022-08-21T00:48:25.954Z,17.28
2022-08-21T00:49:25.925Z,17.22
2022-08-21T00:50:25.913Z,17.12
2022-08-21T00:51:25.890Z,17.13
2022-08-21T00:52:25.891Z,17.17
2022-08-21T00:53:25.854Z,17.10
2022-08-21T00:54:25.875Z,17.12
2022-08-21T00:55:25.816Z,16.98
2022-08-21T00:56:25.803Z,17.01
2022-08-21T00:57:25.800Z,16.98
2022-08-21T00:58:25.770Z,17.14
2022-08-21T00:59:25.750Z,17.17
2022-08-21T01:00:25.733Z,17.24
2022-08-21T01:01:25.777Z,17.17
2022-08-21T01:02:25.719Z,17.13
2022-08-21T01:03:25.675Z,17.10
2022-08-21T01:04:25.666Z,17.06
2022-08-21T01:05:25.645Z,17.07
2022-08-21T01:06:25.623Z,16.99
2022-08-21T01:07:27.625Z,16.92
2022-08-21T01:08:25.590Z,16.92
2022-08-21T01:09:25.579Z,16.88
2022-08-21T01:10:25.549Z,16.94
2022-08-21T01:11:25.529Z,16.92
2022-08-21T01:12:25.531Z,16.88
2022-08-21T01:13:25.499Z,16.79
2022-08-21T01:14:25.477Z,16.87
2022-08-21T01:15:25.465Z,16.91
2022-08-21T01:16:25.458Z,16.87
2022-08-21T01:17:25.423Z,16.74
2022-08-21T01:18:25.401Z,16.70
2022-08-21T01:19:25.389Z,16.70
2022-08-21T01:20:32.159Z,16.67
2022-08-21T01:21:28.184Z,16.62
2022-08-21T01:22:25.350Z,16.64
2022-08-21T01:23:25.332Z,16.62
2022-08-21T01:24:25.292Z,16.59
2022-08-21T01:25:25.275Z,16.73
2022-08-21T01:26:29.066Z,16.65
2022-08-21T01:27:25.235Z,16.59
2022-08-21T01:28:25.236Z,16.62
2022-08-21T01:29:25.201Z,16.61
2022-08-21T01:30:25.203Z,16.49
2022-08-21T01:31:26.019Z,16.57
2022-08-21T01:32:25.158Z,16.55
2022-08-21T01:33:25.130Z,16.51
2022-08-21T01:34:25.126Z,16.55
2022-08-21T01:35:25.101Z,16.44
2022-08-21T01:36:25.071Z,16.47
2022-08-21T01:37:25.116Z,16.61
2022-08-21T01:38:25.034Z,16.59
2022-08-21T01:39:25.041Z,16.55
2022-08-21T01:40:25.048Z,16.54
2022-08-21T01:41:24.983Z,16.61
2022-08-21T01:42:24.959Z,16.46
2022-08-21T01:43:28.943Z,16.49
2022-08-21T01:44:24.928Z,16.47
2022-08-21T01:45:24.907Z,16.37
2022-08-21T01:46:24.890Z,16.46
2022-08-21T01:47:24.866Z,16.39
2022-08-21T01:48:24.870Z,16.43
2022-08-21T01:49:24.830Z,16.44
2022-08-21T01:50:24.839Z,16.40
2022-08-21T01:51:24.815Z,16.37
2022-08-21T01:52:24.775Z,16.39
2022-08-21T01:53:27.885Z,16.33
2022-08-21T01:54:24.740Z,16.28
2022-08-21T01:55:24.738Z,16.42
2022-08-21T01:56:24.720Z,16.42
2022-08-21T01:57:26.033Z,16.37
2022-08-21T01:58:24.751Z,16.36
2022-08-21T01:59:24.646Z,16.39
2022-08-21T02:00:24.629Z,16.49
2022-08-21T02:01:24.629Z,16.37
2022-08-21T02:02:24.611Z,16.44
2022-08-21T02:03:26.310Z,16.36
2022-08-21T02:04:24.573Z,16.46
2022-08-21T02:05:24.537Z,16.51
2022-08-21T02:06:24.515Z,16.49
2022-08-21T02:07:24.520Z,16.59
2022-08-21T02:08:24.481Z,16.65
2022-08-21T02:09:24.470Z,16.69
2022-08-21T02:10:24.454Z,16.58
2022-08-21T02:11:24.443Z,16.62
2022-08-21T02:12:24.402Z,16.70
2022-08-21T02:13:24.384Z,16.67
2022-08-21T02:14:32.369Z,16.69
2022-08-21T02:15:24.349Z,16.62
2022-08-21T02:16:24.331Z,16.72
2022-08-21T02:17:24.326Z,16.65
2022-08-21T02:18:24.297Z,16.59
2022-08-21T02:19:24.274Z,16.62
2022-08-21T02:20:24.261Z,16.61
2022-08-21T02:21:24.240Z,16.55
2022-08-21T02:22:24.241Z,16.49
2022-08-21T02:23:26.749Z,16.42
2022-08-21T02:24:24.181Z,16.44
2022-08-21T02:25:24.164Z,16.51
2022-08-21T02:26:24.146Z,16.62
2022-08-21T02:27:26.322Z,16.58
2022-08-21T02:28:24.115Z,16.47
2022-08-21T02:29:24.088Z,16.54
2022-08-21T02:30:24.073Z,16.62
2022-08-21T02:31:24.065Z,16.64
2022-08-21T02:32:24.055Z,16.59
2022-08-21T02:33:24.017Z,16.61
2022-08-21T02:34:24.016Z,16.70
2022-08-21T02:35:23.976Z,16.70
2022-08-21T02:36:23.959Z,16.65
2022-08-21T02:37:23.940Z,16.65
2022-08-21T02:38:23.922Z,16.70
2022-08-21T02:39:27.173Z,16.65
2022-08-21T02:40:23.893Z,16.69
2022-08-21T02:41:23.867Z,16.67
2022-08-21T02:42:23.846Z,16.70
2022-08-21T02:45:06.178Z,16.57
2022-08-21T02:46:06.142Z,16.55
2022-08-21T02:47:06.125Z,16.49
2022-08-21T02:48:06.104Z,16.44
2022-08-21T02:49:06.085Z,16.39
2022-08-21T02:50:06.068Z,16.24
2022-08-21T02:51:06.065Z,16.21
2022-08-21T02:52:06.028Z,16.22
2022-08-21T02:53:06.017Z,16.25
2022-08-21T02:54:06.021Z,16.32
2022-08-21T02:55:05.972Z,16.33
2022-08-21T02:56:05.958Z,16.24
2022-08-21T02:57:05.933Z,16.25
2022-08-21T02:58:05.924Z,16.24
2022-08-21T02:59:05.901Z,16.17
2022-08-21T03:00:05.902Z,16.24
2022-08-21T03:01:05.876Z,16.06
2022-08-21T03:02:05.948Z,16.16
2022-08-21T03:03:05.844Z,16.21
2022-08-21T03:04:05.811Z,16.22
2022-08-21T03:05:05.785Z,16.22
2022-08-21T03:06:05.789Z,16.21
2022-08-21T03:07:05.756Z,16.05
2022-08-21T03:08:05.794Z,16.13
2022-08-21T03:09:05.714Z,16.02
2022-08-21T03:10:05.693Z,15.99
2022-08-21T03:11:05.695Z,16.03
2022-08-21T03:12:06.708Z,16.06
2022-08-21T03:13:05.710Z,15.98
2022-08-21T03:14:05.643Z,15.95
2022-08-21T03:15:05.731Z,15.95
2022-08-21T03:16:05.686Z,15.85
2022-08-21T03:17:05.581Z,16.08
2022-08-21T03:18:05.541Z,16.05
2022-08-21T03:19:05.558Z,16.08
2022-08-21T03:20:05.516Z,16.09
2022-08-21T03:21:07.710Z,16.24
2022-08-21T03:22:05.524Z,16.25
2022-08-21T03:23:06.214Z,16.26
2022-08-21T03:24:05.429Z,16.24
2022-08-21T03:25:05.436Z,16.24
2022-08-21T03:26:05.454Z,16.32
2022-08-21T03:27:05.395Z,16.26
2022-08-21T03:28:05.355Z,16.22
2022-08-21T03:29:05.425Z,16.21
2022-08-21T03:30:05.423Z,16.25
2022-08-21T03:31:05.301Z,16.24
2022-08-21T03:32:06.392Z,16.14
2022-08-21T03:33:05.429Z,16.14
2022-08-21T03:34:05.446Z,16.10
2022-08-21T03:35:05.265Z,16.06
2022-08-21T03:36:05.202Z,16.09
2022-08-21T03:37:05.189Z,16.08
2022-08-21T03:38:05.168Z,16.10
2022-08-21T03:39:05.149Z,16.09
2022-08-21T03:40:05.294Z,15.99
2022-08-21T03:41:05.124Z,16.00
2022-08-21T03:42:05.092Z,15.93
2022-08-21T03:43:05.071Z,15.88
2022-08-21T03:44:05.057Z,15.83
2022-08-21T03:45:05.036Z,15.83
2022-08-21T03:46:05.094Z,15.87
2022-08-21T03:47:04.992Z,15.88
2022-08-21T03:48:05.005Z,15.70
2022-08-21T03:49:04.965Z,15.62
2022-08-21T03:50:04.954Z,15.60
2022-08-21T03:51:04.921Z,15.63
2022-08-21T03:52:04.922Z,15.60
2022-08-21T03:53:04.883Z,15.58
2022-08-21T03:54:04.863Z,15.59
2022-08-21T03:55:04.881Z,15.56
2022-08-21T03:56:04.826Z,15.56
2022-08-21T03:57:04.806Z,15.54
2022-08-21T03:58:16.945Z,15.47
2022-08-21T03:59:04.769Z,15.51
2022-08-21T04:00:04.761Z,15.45
2022-08-21T04:01:04.756Z,15.48
2022-08-21T04:02:04.771Z,15.56
2022-08-21T04:03:04.702Z,15.44
2022-08-21T04:04:04.680Z,15.48
2022-08-21T04:05:04.657Z,15.47
2022-08-21T04:06:04.644Z,15.38
2022-08-21T04:07:04.636Z,15.50
2022-08-21T04:08:04.606Z,15.44
2022-08-21T04:09:04.607Z,15.50
2022-08-21T04:10:04.582Z,15.41
2022-08-21T04:11:04.540Z,15.41
2022-08-21T04:12:04.527Z,15.51
2022-08-21T04:13:04.529Z,15.60
2022-08-21T04:14:04.515Z,15.56
2022-08-21T04:15:04.469Z,15.65
2022-08-21T04:16:04.464Z,15.63
2022-08-21T04:17:04.436Z,15.62
2022-08-21T04:18:04.431Z,15.63
2022-08-21T04:19:04.413Z,15.70
2022-08-21T04:20:04.378Z,15.76
2022-08-21T04:21:04.357Z,15.72
2022-08-21T04:22:04.336Z,15.83
2022-08-21T04:23:04.327Z,15.83
2022-08-21T04:24:04.314Z,15.85
2022-08-21T04:25:04.321Z,15.78
2022-08-21T04:26:04.257Z,15.83
2022-08-21T04:27:04.287Z,15.80
2022-08-21T04:28:04.234Z,15.69
2022-08-21T04:29:04.206Z,15.69
2022-08-21T04:30:04.198Z,15.73
2022-08-21T04:31:04.182Z,15.73
2022-08-21T04:32:04.146Z,15.68
2022-08-21T04:33:04.134Z,15.70
2022-08-21T04:34:04.109Z,15.68
2022-08-21T04:35:04.093Z,15.60
2022-08-21T04:36:04.096Z,15.70
2022-08-21T04:37:04.074Z,15.66
2022-08-21T04:38:04.033Z,15.60
2022-08-21T04:39:04.021Z,15.65
2022-08-21T04:40:04.107Z,15.59
2022-08-21T04:41:03.980Z,15.63
2022-08-21T04:42:03.999Z,15.54
2022-08-21T04:43:03.940Z,15.52
2022-08-21T04:44:03.928Z,15.47
2022-08-21T04:45:03.902Z,15.45
2022-08-21T04:46:03.884Z,15.38
2022-08-21T04:47:03.889Z,15.50
2022-08-21T04:48:03.861Z,15.54
2022-08-21T04:49:03.825Z,15.48
2022-08-21T04:50:03.807Z,15.41
2022-08-21T04:51:03.783Z,15.43
2022-08-21T04:52:03.787Z,15.51
2022-08-21T04:53:03.751Z,15.51
2022-08-21T04:54:03.732Z,15.51
2022-08-21T04:55:03.710Z,15.60
2022-08-21T04:56:03.710Z,15.54
2022-08-21T04:57:03.679Z,15.65
2022-08-21T04:58:03.654Z,15.63
2022-08-21T04:59:03.634Z,15.76
2022-08-21T05:00:03.619Z,15.70
2022-08-21T05:01:03.600Z,15.69
2022-08-21T05:02:03.606Z,15.72
2022-08-21T05:03:03.558Z,15.70
2022-08-21T05:04:03.546Z,15.63
2022-08-21T05:05:03.528Z,15.73
2022-08-21T05:06:03.504Z,15.72
2022-08-21T05:07:03.853Z,15.80
2022-08-21T05:08:03.484Z,15.81
2022-08-21T05:09:03.448Z,15.81
2022-08-21T05:10:03.431Z,15.77
2022-08-21T05:11:03.409Z,15.70
2022-08-21T05:12:03.413Z,15.54
2022-08-21T05:13:03.389Z,15.50
2022-08-21T05:14:03.349Z,15.51
2022-08-21T05:15:03.337Z,15.47
2022-08-21T05:16:03.315Z,15.51
2022-08-21T05:17:03.295Z,15.60
2022-08-21T05:18:03.304Z,15.65
2022-08-21T05:19:03.358Z,15.62
2022-08-21T05:20:03.254Z,15.65
2022-08-21T05:21:03.222Z,15.73
2022-08-21T05:22:03.203Z,15.68
2022-08-21T05:23:03.179Z,15.69
2022-08-21T05:24:03.187Z,15.77
2022-08-21T05:25:03.146Z,15.91
2022-08-21T05:26:03.130Z,15.87
2022-08-21T05:27:03.897Z,15.81
2022-08-21T05:28:03.085Z,15.88
2022-08-21T05:29:03.068Z,15.83
2022-08-21T05:30:11.855Z,15.76
2022-08-21T05:31:03.053Z,15.87
2022-08-21T05:32:03.013Z,15.78
2022-08-21T05:33:10.854Z,15.78
2022-08-21T05:34:11.868Z,15.85
2022-08-21T05:35:12.900Z,15.80
2022-08-21T05:36:02.931Z,15.81
2022-08-21T05:37:07.361Z,15.83
2022-08-21T05:38:02.900Z,15.80
2022-08-21T05:39:02.881Z,15.78
2022-08-21T05:40:20.331Z,15.91
2022-08-21T05:41:02.892Z,15.81
2022-08-21T05:42:02.840Z,15.90
2022-08-21T05:43:03.115Z,16.00
2022-08-21T05:44:02.785Z,15.98
2022-08-21T05:45:02.766Z,15.99
2022-08-21T05:46:02.745Z,16.00
2022-08-21T05:47:02.749Z,16.08
2022-08-21T05:48:02.707Z,16.05
2022-08-21T05:49:02.702Z,16.06
2022-08-21T05:50:02.672Z,16.16
2022-08-21T05:51:02.662Z,16.24
2022-08-21T05:52:02.631Z,16.18
2022-08-21T05:53:07.240Z,16.24
2022-08-21T05:54:02.594Z,16.25
2022-08-21T05:55:02.575Z,16.34
2022-08-21T05:56:02.557Z,16.44
2022-08-21T05:57:02.553Z,16.36
2022-08-21T05:58:02.526Z,16.42
2022-08-21T05:59:02.515Z,16.51
2022-08-21T06:00:02.618Z,16.61
2022-08-21T06:01:02.495Z,16.57
2022-08-21T06:02:05.642Z,16.62
2022-08-21T06:03:02.429Z,16.65
2022-08-21T06:04:02.424Z,16.67
2022-08-21T06:05:02.387Z,16.72
2022-08-21T06:06:02.363Z,16.65
2022-08-21T06:07:02.357Z,16.65
2022-08-21T06:08:02.336Z,16.65
2022-08-21T06:09:02.314Z,16.70
2022-08-21T06:10:02.309Z,16.73
2022-08-21T06:11:02.292Z,16.77
2022-08-21T06:12:02.268Z,16.77
2022-08-21T06:13:02.241Z,16.70
2022-08-21T06:14:02.215Z,16.79
2022-08-21T06:15:02.220Z,16.90
2022-08-21T06:16:02.175Z,16.94
2022-08-21T06:17:02.160Z,17.07
2022-08-21T06:18:02.142Z,16.97
2022-08-21T06:19:02.990Z,17.13
2022-08-21T06:20:02.111Z,17.02
2022-08-21T06:21:02.108Z,17.01
2022-08-21T06:22:02.070Z,17.10
2022-08-21T06:23:02.073Z,17.09
2022-08-21T06:24:02.032Z,17.13
2022-08-21T06:25:02.012Z,17.19
2022-08-21T06:26:02.012Z,17.20
2022-08-21T06:27:01.984Z,17.22
2022-08-21T06:28:01.962Z,17.27
2022-08-21T06:29:01.937Z,17.24
2022-08-21T06:30:01.914Z,17.22
2022-08-21T06:31:01.898Z,17.34
2022-08-21T06:32:01.896Z,17.35
2022-08-21T06:33:01.860Z,17.41
2022-08-21T06:34:01.841Z,17.45
2022-08-21T06:35:01.836Z,17.47
2022-08-21T06:36:01.809Z,17.50
2022-08-21T06:37:01.847Z,17.50
2022-08-21T06:38:01.808Z,17.45
2022-08-21T06:39:01.785Z,17.41
2022-08-21T06:40:01.785Z,17.43
2022-08-21T06:41:01.717Z,17.47
2022-08-21T06:42:01.732Z,17.57
2022-08-21T06:43:01.683Z,17.66
2022-08-21T06:44:01.681Z,17.69
2022-08-21T06:45:01.643Z,17.83
2022-08-21T06:46:01.624Z,17.84
2022-08-21T06:47:01.602Z,17.72
2022-08-21T06:48:01.587Z,17.78
2022-08-21T06:49:01.588Z,17.79
2022-08-21T06:50:01.553Z,17.76
2022-08-21T06:51:01.529Z,17.84
2022-08-21T06:52:01.512Z,17.78
2022-08-21T06:53:01.512Z,17.84
2022-08-21T06:54:01.503Z,17.93
2022-08-21T06:55:01.456Z,17.94
2022-08-21T06:56:01.454Z,17.94
2022-08-21T06:57:01.415Z,18.09
2022-08-21T06:58:01.406Z,18.05
2022-08-21T06:59:01.407Z,18.01
2022-08-21T07:00:01.381Z,17.94
2022-08-21T07:01:01.608Z,18.11
2022-08-21T07:02:01.396Z,18.12
2022-08-21T07:03:01.308Z,18.17
2022-08-21T07:04:01.288Z,18.28
2022-08-21T07:05:01.302Z,18.30
2022-08-21T07:06:01.250Z,18.30
2022-08-21T07:07:01.237Z,18.27
2022-08-21T07:08:01.387Z,18.38
2022-08-21T07:09:01.200Z,18.31
2022-08-21T07:10:01.178Z,18.52
2022-08-21T07:11:01.187Z,18.54
2022-08-21T07:12:01.176Z,18.52
2022-08-21T07:13:01.705Z,18.51
2022-08-21T07:14:01.113Z,18.51
2022-08-21T07:15:01.101Z,18.52
2022-08-21T07:16:04.039Z,18.56
2022-08-21T07:17:01.062Z,18.52
2022-08-21T07:18:01.036Z,18.57
2022-08-21T07:19:01.016Z,18.58
2022-08-21T07:20:01.000Z,18.57
2022-08-21T07:21:01.002Z,18.51
2022-08-21T07:22:00.971Z,18.54
2022-08-21T07:23:01.053Z,18.66
2022-08-21T07:24:00.923Z,18.70
2022-08-21T07:25:00.913Z,18.76
2022-08-21T07:26:00.910Z,18.81
2022-08-21T07:28:42.828Z,18.85
2022-08-21T07:29:42.812Z,18.85
2022-08-21T07:30:42.791Z,18.94
2022-08-21T07:31:42.813Z,18.93
2022-08-21T07:32:42.791Z,19.07
2022-08-21T07:33:42.744Z,19.08
2022-08-21T07:34:42.720Z,19.13
2022-08-21T07:35:42.701Z,19.16
2022-08-21T07:36:42.707Z,19.15
2022-08-21T07:37:42.680Z,19.17
2022-08-21T07:38:42.652Z,19.20
2022-08-21T07:41:24.854Z,19.37
2022-08-21T07:42:25.411Z,19.47
2022-08-21T07:43:24.804Z,19.60
2022-08-21T07:44:24.779Z,19.63
2022-08-21T07:45:24.822Z,19.64
2022-08-21T07:46:24.742Z,19.59
2022-08-21T07:47:41.457Z,19.59
2022-08-21T07:48:24.705Z,19.62
2022-08-21T07:49:24.697Z,19.74
2022-08-21T07:50:24.686Z,19.79
2022-08-21T07:51:24.655Z,19.93
2022-08-21T07:52:24.636Z,19.96
2022-08-21T07:53:24.628Z,20.07
2022-08-21T07:54:33.546Z,20.05
2022-08-21T07:55:24.607Z,19.94
2022-08-21T07:56:24.585Z,19.99
2022-08-21T07:57:24.553Z,20.05
2022-08-21T07:58:24.530Z,20.15
2022-08-21T07:59:24.522Z,20.14
2022-08-21T08:00:24.512Z,20.25
2022-08-21T08:01:24.527Z,20.22
2022-08-21T08:02:24.465Z,20.29
2022-08-21T08:03:29.225Z,20.39
2022-08-21T08:04:26.474Z,20.41
2022-08-21T08:05:24.406Z,20.49
2022-08-21T08:06:24.426Z,20.42
2022-08-21T08:07:24.378Z,20.44
2022-08-21T08:08:24.371Z,20.37
2022-08-21T08:09:24.341Z,20.48
2022-08-21T08:10:24.342Z,20.42
2022-08-21T08:11:24.320Z,20.46
2022-08-21T08:12:24.290Z,20.50
2022-08-21T08:13:24.269Z,20.48
2022-08-21T08:14:26.484Z,20.67
2022-08-21T08:15:24.246Z,20.64
2022-08-21T08:16:24.250Z,20.67
2022-08-21T08:17:24.199Z,20.73
2022-08-21T08:18:24.189Z,20.68
2022-08-21T08:19:24.164Z,20.75
2022-08-21T08:20:24.158Z,20.79
2022-08-21T08:21:24.126Z,20.85
2022-08-21T08:22:24.130Z,20.97
2022-08-21T08:23:24.103Z,21.01
2022-08-21T08:24:24.078Z,21.03
2022-08-21T08:25:24.067Z,21.13
2022-08-21T08:26:24.063Z,21.20
2022-08-21T08:27:24.032Z,21.25
2022-08-21T08:28:24.008Z,21.29
2022-08-21T08:29:23.991Z,21.47
2022-08-21T08:30:23.977Z,21.45
2022-08-21T08:31:23.979Z,21.55
2022-08-21T08:32:23.957Z,21.62
2022-08-21T08:33:23.928Z,21.67
2022-08-21T08:34:25.713Z,21.63
2022-08-21T08:35:24.769Z,21.74
2022-08-21T08:36:23.879Z,21.78
2022-08-21T08:37:24.070Z,21.88
2022-08-21T08:38:24.511Z,21.88
2022-08-21T08:39:26.338Z,21.90
2022-08-21T08:40:23.897Z,21.98
2022-08-21T08:41:23.831Z,22.01
2022-08-21T08:42:32.272Z,22.03
2022-08-21T08:43:23.789Z,21.78
2022-08-21T08:44:23.743Z,21.84
2022-08-21T08:45:23.733Z,21.94
2022-08-21T08:46:23.720Z,21.93
2022-08-21T08:47:23.691Z,22.04
2022-08-21T08:48:23.675Z,22.00
2022-08-21T08:49:23.679Z,21.88
2022-08-21T08:50:23.647Z,21.94
2022-08-21T08:51:23.639Z,21.84
2022-08-21T08:52:23.611Z,21.84
2022-08-21T08:53:23.595Z,22.01
2022-08-21T08:54:23.595Z,22.07
2022-08-21T08:55:27.156Z,22.11
2022-08-21T08:56:23.542Z,22.25
2022-08-21T08:57:23.527Z,22.19
2022-08-21T08:58:23.507Z,22.28
2022-08-21T08:59:23.512Z,22.33
2022-08-21T09:00:23.490Z,22.31
2022-08-21T09:01:23.492Z,22.22
2022-08-21T09:02:23.455Z,22.09
2022-08-21T09:03:23.430Z,22.06
2022-08-21T09:04:23.432Z,22.19
2022-08-21T09:05:23.411Z,22.18
2022-08-21T09:06:23.385Z,22.30
2022-08-21T09:07:23.394Z,22.53
2022-08-21T09:08:23.351Z,22.67
2022-08-21T09:09:23.333Z,22.88
2022-08-21T09:10:23.341Z,22.91
2022-08-21T09:11:23.302Z,22.98
2022-08-21T09:12:23.309Z,23.01
2022-08-21T09:13:23.283Z,23.10
2022-08-21T09:14:23.253Z,23.25
2022-08-21T09:15:23.238Z,23.25
2022-08-21T09:16:23.230Z,23.44
2022-08-21T09:17:23.242Z,23.44
2022-08-21T09:18:23.196Z,23.61
2022-08-21T09:19:25.014Z,23.67
2022-08-21T09:20:23.162Z,23.79
2022-08-21T09:21:23.140Z,23.85
2022-08-21T09:22:23.151Z,23.96
2022-08-21T09:23:23.132Z,24.01
2022-08-21T09:24:23.100Z,23.91
2022-08-21T09:25:24.035Z,23.88
2022-08-21T09:26:23.083Z,23.98
2022-08-21T09:27:23.071Z,24.15
2022-08-21T09:28:23.033Z,24.04
2022-08-21T09:29:23.037Z,24.15
2022-08-21T09:30:23.006Z,24.10
2022-08-21T09:31:22.992Z,23.96
2022-08-21T09:32:22.973Z,24.10
2022-08-21T09:33:22.976Z,24.31
2022-08-21T09:34:22.944Z,24.81
2022-08-21T09:35:22.937Z,24.60
2022-08-21T09:36:22.912Z,24.85
2022-08-21T09:37:22.897Z,25.43
2022-08-21T09:38:22.883Z,25.92
2022-08-21T09:39:22.891Z,26.58
2022-08-21T09:40:22.901Z,26.98
2022-08-21T09:41:22.840Z,26.51
2022-08-21T09:42:22.823Z,26.11
2022-08-21T09:45:04.890Z,26.07
2022-08-21T09:46:04.865Z,26.26
2022-08-21T09:47:04.846Z,26.71
2022-08-21T09:48:04.865Z,26.93
2022-08-21T09:49:04.817Z,27.27
2022-08-21T09:50:04.818Z,27.27
2022-08-21T09:51:04.820Z,27.12
2022-08-21T09:52:04.785Z,26.90
2022-08-21T09:53:04.770Z,26.88
2022-08-21T09:54:04.761Z,27.03
2022-08-21T09:55:04.771Z,27.44
2022-08-21T09:56:04.738Z,27.34
2022-08-21T09:57:04.748Z,27.26
2022-08-21T09:58:04.719Z,27.00
2022-08-21T09:59:04.701Z,27.47
2022-08-21T10:00:04.694Z,27.75
2022-08-21T10:01:04.735Z,27.64
2022-08-21T10:02:04.673Z,27.49
2022-08-21T10:03:04.660Z,27.75
2022-08-21T10:04:04.655Z,27.98
2022-08-21T10:05:04.642Z,28.03
2022-08-21T10:06:04.651Z,28.37
2022-08-21T10:07:04.631Z,28.34
2022-08-21T10:08:04.607Z,28.01
2022-08-21T10:09:04.603Z,28.00
2022-08-21T10:10:04.592Z,27.70
2022-08-21T10:11:04.585Z,27.17
2022-08-21T10:12:04.592Z,26.67
2022-08-21T10:13:04.577Z,26.64
2022-08-21T10:14:04.555Z,26.38
2022-08-21T10:15:08.378Z,26.30
2022-08-21T10:16:04.557Z,26.68
2022-08-21T10:17:04.551Z,26.53
2022-08-21T10:18:04.524Z,26.56
2022-08-21T10:19:04.513Z,26.80
2022-08-21T10:20:04.508Z,26.57
2022-08-21T10:21:04.513Z,26.31
2022-08-21T10:22:04.481Z,26.21
2022-08-21T10:23:04.469Z,26.20
2022-08-21T10:24:04.469Z,26.07
2022-08-21T10:25:04.471Z,25.98
2022-08-21T10:26:13.992Z,25.49
2022-08-21T10:27:04.453Z,25.36
2022-08-21T10:28:04.433Z,25.59
2022-08-21T10:29:04.413Z,25.92
2022-08-21T10:30:04.428Z,26.12
2022-08-21T10:31:04.394Z,26.49
2022-08-21T10:32:04.391Z,26.79
2022-08-21T10:33:04.399Z,27.34
2022-08-21T10:34:04.371Z,27.17
2022-08-21T10:35:04.392Z,27.07
2022-08-21T10:36:04.347Z,27.22
2022-08-21T10:37:08.246Z,27.08
2022-08-21T10:38:04.345Z,26.58
2022-08-21T10:39:25.774Z,26.21
2022-08-21T10:40:04.380Z,26.26
2022-08-21T10:41:04.316Z,26.11
2022-08-21T10:42:04.291Z,25.49
2022-08-21T10:43:04.285Z,25.30
2022-08-21T10:44:04.271Z,25.21
2022-08-21T10:45:04.260Z,25.33
2022-08-21T10:46:04.272Z,25.34
2022-08-21T10:47:04.246Z,25.34
2022-08-21T10:48:04.232Z,25.36
2022-08-21T10:49:04.256Z,25.12
2022-08-21T10:50:04.216Z,25.03
2022-08-21T10:51:04.218Z,25.22
2022-08-21T10:52:04.189Z,25.55
2022-08-21T10:53:04.204Z,25.98
2022-08-21T10:54:04.178Z,26.45
2022-08-21T10:55:04.179Z,26.68
2022-08-21T10:56:04.172Z,26.49
2022-08-21T10:57:04.145Z,26.21
2022-08-21T10:58:04.133Z,26.10
2022-08-21T10:59:04.129Z,25.45
2022-08-21T11:00:04.109Z,25.34
2022-08-21T11:01:04.153Z,25.33
2022-08-21T11:02:04.105Z,25.34
2022-08-21T11:03:04.087Z,25.30
2022-08-21T11:04:04.072Z,25.34
2022-08-21T11:05:04.093Z,25.64
2022-08-21T11:06:04.055Z,25.81
2022-08-21T11:07:04.583Z,25.75
2022-08-21T11:08:04.036Z,25.56
2022-08-21T11:09:04.054Z,25.36
2022-08-21T11:10:04.015Z,25.33
2022-08-21T11:11:04.909Z,25.36
2022-08-21T11:12:11.377Z,25.48
2022-08-21T11:13:03.978Z,25.51
2022-08-21T11:14:03.972Z,25.53
2022-08-21T11:15:03.965Z,25.52
2022-08-21T11:16:03.980Z,25.56
2022-08-21T11:17:03.943Z,25.58
2022-08-21T11:18:03.934Z,25.68
2022-08-21T11:19:03.925Z,25.93
2022-08-21T11:20:03.936Z,26.21
2022-08-21T11:21:03.897Z,26.21
2022-08-21T11:22:03.894Z,26.08
2022-08-21T11:23:04.545Z,26.04
2022-08-21T11:24:03.877Z,26.12
2022-08-21T11:25:03.856Z,26.08
2022-08-21T11:26:03.870Z,25.71
2022-08-21T11:27:03.838Z,25.48
2022-08-21T11:28:03.831Z,25.64
2022-08-21T11:29:03.828Z,25.93
2022-08-21T11:30:03.814Z,26.20
2022-08-21T11:31:03.796Z,26.30
2022-08-21T11:32:03.801Z,26.45
2022-08-21T11:33:03.813Z,26.56
2022-08-21T11:34:03.791Z,26.68
2022-08-21T11:35:03.751Z,26.85
2022-08-21T11:36:03.746Z,27.10
2022-08-21T11:37:03.749Z,27.05
2022-08-21T11:38:03.749Z,27.22
2022-08-21T11:39:03.707Z,27.38
2022-08-21T11:40:03.780Z,27.35
2022-08-21T11:41:03.689Z,27.49
2022-08-21T11:42:08.359Z,27.63
2022-08-21T11:43:03.694Z,27.72
2022-08-21T11:44:03.676Z,27.37
2022-08-21T11:45:03.647Z,27.38
2022-08-21T11:46:03.637Z,27.63
2022-08-21T11:47:03.623Z,27.85
2022-08-21T11:48:03.620Z,28.03
2022-08-21T11:49:03.603Z,28.16
2022-08-21T11:50:03.618Z,28.42
2022-08-21T11:51:03.581Z,27.98
2022-08-21T11:52:03.574Z,27.82
2022-08-21T11:53:03.564Z,28.00
2022-08-21T11:54:03.547Z,28.24
2022-08-21T11:55:03.563Z,28.61
2022-08-21T11:56:03.534Z,28.69
2022-08-21T11:57:03.524Z,28.83
2022-08-21T11:58:03.505Z,28.93
2022-08-21T11:59:03.509Z,29.07
2022-08-21T12:00:03.499Z,29.12
2022-08-21T12:01:03.486Z,29.02
2022-08-21T12:02:03.513Z,28.50
2022-08-21T12:03:03.454Z,28.31
2022-08-21T12:04:03.454Z,28.00
2022-08-21T12:05:08.219Z,27.88
2022-08-21T12:06:03.433Z,27.82
2022-08-21T12:07:03.414Z,28.05
2022-08-21T12:08:03.401Z,28.32
2022-08-21T12:09:03.390Z,28.37
2022-08-21T12:10:03.423Z,28.25
2022-08-21T12:11:03.371Z,28.10
2022-08-21T12:12:03.380Z,28.07
2022-08-21T12:13:03.352Z,28.15
2022-08-21T12:14:03.349Z,28.35
2022-08-21T12:15:03.345Z,28.52
2022-08-21T12:16:03.335Z,28.57
2022-08-21T12:17:03.366Z,28.46
2022-08-21T12:18:03.301Z,28.50
2022-08-21T12:19:03.292Z,28.64
2022-08-21T12:20:03.285Z,28.38
2022-08-21T12:21:03.269Z,28.64
2022-08-21T12:22:03.282Z,28.69
2022-08-21T12:23:03.290Z,28.83
2022-08-21T12:24:03.290Z,29.13
2022-08-21T12:25:03.240Z,29.24
2022-08-21T12:26:03.234Z,29.25
2022-08-21T12:27:03.212Z,29.06
2022-08-21T12:28:03.226Z,28.93
2022-08-21T12:29:03.204Z,28.98
2022-08-21T12:30:03.193Z,29.12
2022-08-21T12:31:03.186Z,29.19
2022-08-21T12:32:03.193Z,29.37
2022-08-21T12:33:03.169Z,29.52
2022-08-21T12:34:03.151Z,29.58
2022-08-21T12:35:03.138Z,29.55
2022-08-21T12:36:03.131Z,29.59
2022-08-21T12:37:03.152Z,29.58
2022-08-21T12:38:03.119Z,29.39
2022-08-21T12:39:03.103Z,29.37
2022-08-21T12:40:03.196Z,29.37
2022-08-21T12:41:03.103Z,28.90
2022-08-21T12:42:03.094Z,28.72
2022-08-21T12:43:03.565Z,28.75
2022-08-21T12:44:03.064Z,28.71
2022-08-21T12:45:03.068Z,28.75
2022-08-21T12:46:03.067Z,28.80
2022-08-21T12:47:03.025Z,28.81
2022-08-21T12:48:03.018Z,28.75
2022-08-21T12:49:03.022Z,28.69
2022-08-21T12:50:03.105Z,28.47
2022-08-21T12:51:02.991Z,28.20
2022-08-21T12:52:03.003Z,28.22
2022-08-21T12:53:02.985Z,28.30
2022-08-21T12:54:02.958Z,28.22
2022-08-21T12:55:02.947Z,28.46
2022-08-21T12:56:02.939Z,28.56
2022-08-21T12:57:02.948Z,28.84
2022-08-21T12:58:02.950Z,29.21
2022-08-21T12:59:02.940Z,29.65